sensor_id;sensor_type;location;lat;lon;timestamp;P1;durP1;ratioP1;P2;durP2;ratioP2
80247;SDS011;69560;52.206;21.018;2023-12-20T00:01:51;16.60;;;12.20;;
80247;SDS011;69560;52.206;21.018;2023-12-20T00:04:18;16.40;;;12.70;;
80247;SDS011;69560;52.206;21.018;2023-12-20T00:06:44;12.50;;;10.40;;
80247;SDS011;69560;52.206;21.018;2023-12-20T00:09:11;14.90;;;10.70;;
80247;SDS011;69560;52.206;21.018;2023-12-20T00:11:37;15.60;;;12.30;;
80247;SDS011;69560;52.206;21.018;2023-12-20T00:14:04;16.10;;;12.40;;
80247;SDS011;69560;52.206;21.018;2023-12-20T00:16:30;17.50;;;13.80;;
80247;SDS011;69560;52.206;21.018;2023-12-20T00:18:58;19.70;;;14.50;;
80247;SDS011;69560;52.206;21.018;2023-12-20T00:21:24;14.80;;;11.50;;
80247;SDS011;69560;52.206;21.018;2023-12-20T00:23:51;15.20;;;11.50;;
80247;SDS011;69560;52.206;21.018;2023-12-20T00:26:17;14.50;;;11.60;;
80247;SDS011;69560;52.206;21.018;2023-12-20T00:28:43;15.10;;;11.30;;
80247;SDS011;69560;52.206;21.018;2023-12-20T00:31:10;15.60;;;11.20;;
80247;SDS011;69560;52.206;21.018;2023-12-20T00:33:36;15.10;;;11.30;;
80247;SDS011;69560;52.206;21.018;2023-12-20T00:36:03;14.70;;;10.30;;
80247;SDS011;69560;52.206;21.018;2023-12-20T00:38:30;15.40;;;11.20;;
80247;SDS011;69560;52.206;21.018;2023-12-20T00:40:56;14.70;;;10.70;;
80247;SDS011;69560;52.206;21.018;2023-12-20T00:43:23;15.20;;;11.50;;
80247;SDS011;69560;52.206;21.018;2023-12-20T00:45:49;12.50;;;10.00;;
80247;SDS011;69560;52.206;21.018;2023-12-20T00:48:16;15.50;;;10.80;;
80247;SDS011;69560;52.206;21.018;2023-12-20T00:50:42;15.70;;;10.80;;
80247;SDS011;69560;52.206;21.018;2023-12-20T00:53:09;13.80;;;10.90;;
80247;SDS011;69560;52.206;21.018;2023-12-20T00:55:35;14.00;;;10.50;;
80247;SDS011;69560;52.206;21.018;2023-12-20T00:58:02;14.10;;;10.80;;
80247;SDS011;69560;52.206;21.018;2023-12-20T01:00:28;13.40;;;9.70;;
80247;SDS011;69560;52.206;21.018;2023-12-20T01:02:55;13.70;;;10.40;;
80247;SDS011;69560;52.206;21.018;2023-12-20T01:05:21;13.50;;;9.80;;
80247;SDS011;69560;52.206;21.018;2023-12-20T01:07:49;12.90;;;10.00;;
80247;SDS011;69560;52.206;21.018;2023-12-20T01:10:15;13.50;;;10.30;;
80247;SDS011;69560;52.206;21.018;2023-12-20T01:12:43;14.20;;;11.10;;
80247;SDS011;69560;52.206;21.018;2023-12-20T01:15:10;15.50;;;10.70;;
80247;SDS011;69560;52.206;21.018;2023-12-20T01:17:36;12.90;;;10.30;;
80247;SDS011;69560;52.206;21.018;2023-12-20T01:20:03;12.30;;;9.30;;
80247;SDS011;69560;52.206;21.018;2023-12-20T01:22:30;13.30;;;9.80;;
80247;SDS011;69560;52.206;21.018;2023-12-20T01:24:56;11.70;;;9.90;;
80247;SDS011;69560;52.206;21.018;2023-12-20T01:27:23;13.10;;;9.80;;
80247;SDS011;69560;52.206;21.018;2023-12-20T01:29:50;15.30;;;10.60;;
80247;SDS011;69560;52.206;21.018;2023-12-20T01:32:16;12.10;;;9.20;;
80247;SDS011;69560;52.206;21.018;2023-12-20T01:34:43;10.60;;;9.10;;
80247;SDS011;69560;52.206;21.018;2023-12-20T01:37:09;12.10;;;9.10;;
80247;SDS011;69560;52.206;21.018;2023-12-20T01:39:36;12.80;;;9.90;;
80247;SDS011;69560;52.206;21.018;2023-12-20T01:42:02;12.10;;;9.20;;
80247;SDS011;69560;52.206;21.018;2023-12-20T01:44:29;14.80;;;9.40;;
80247;SDS011;69560;52.206;21.018;2023-12-20T01:46:55;11.80;;;8.30;;
80247;SDS011;69560;52.206;21.018;2023-12-20T01:49:22;10.80;;;8.70;;
80247;SDS011;69560;52.206;21.018;2023-12-20T01:51:49;13.20;;;9.40;;
80247;SDS011;69560;52.206;21.018;2023-12-20T01:54:16;11.10;;;8.70;;
80247;SDS011;69560;52.206;21.018;2023-12-20T01:56:45;10.60;;;8.80;;
80247;SDS011;69560;52.206;21.018;2023-12-20T01:59:12;14.30;;;9.50;;
80247;SDS011;69560;52.206;21.018;2023-12-20T02:01:39;11.30;;;8.70;;
80247;SDS011;69560;52.206;21.018;2023-12-20T02:04:05;12.40;;;8.70;;
80247;SDS011;69560;52.206;21.018;2023-12-20T02:06:32;11.50;;;8.70;;
80247;SDS011;69560;52.206;21.018;2023-12-20T02:09:00;12.90;;;9.60;;
80247;SDS011;69560;52.206;21.018;2023-12-20T02:11:26;10.30;;;8.50;;
80247;SDS011;69560;52.206;21.018;2023-12-20T02:13:53;10.30;;;8.50;;
80247;SDS011;69560;52.206;21.018;2023-12-20T02:16:21;12.00;;;8.60;;
80247;SDS011;69560;52.206;21.018;2023-12-20T02:18:48;11.90;;;8.00;;
80247;SDS011;69560;52.206;21.018;2023-12-20T02:21:14;11.50;;;9.40;;
80247;SDS011;69560;52.206;21.018;2023-12-20T02:23:41;10.40;;;7.50;;
80247;SDS011;69560;52.206;21.018;2023-12-20T02:26:07;12.70;;;8.90;;
80247;SDS011;69560;52.206;21.018;2023-12-20T02:28:34;11.90;;;9.00;;
80247;SDS011;69560;52.206;21.018;2023-12-20T02:31:01;9.80;;;7.90;;
80247;SDS011;69560;52.206;21.018;2023-12-20T02:33:28;9.30;;;7.60;;
80247;SDS011;69560;52.206;21.018;2023-12-20T02:35:54;9.40;;;7.60;;
80247;SDS011;69560;52.206;21.018;2023-12-20T02:38:21;11.60;;;8.10;;
80247;SDS011;69560;52.206;21.018;2023-12-20T02:40:47;9.40;;;7.60;;
80247;SDS011;69560;52.206;21.018;2023-12-20T02:43:14;9.40;;;7.20;;
80247;SDS011;69560;52.206;21.018;2023-12-20T02:45:40;10.20;;;7.40;;
80247;SDS011;69560;52.206;21.018;2023-12-20T02:48:07;7.50;;;6.10;;
80247;SDS011;69560;52.206;21.018;2023-12-20T02:50:33;8.10;;;5.80;;
80247;SDS011;69560;52.206;21.018;2023-12-20T02:53:00;8.30;;;5.80;;
80247;SDS011;69560;52.206;21.018;2023-12-20T02:55:26;6.20;;;4.70;;
80247;SDS011;69560;52.206;21.018;2023-12-20T02:57:53;6.40;;;5.00;;
80247;SDS011;69560;52.206;21.018;2023-12-20T03:00:19;7.00;;;4.80;;
80247;SDS011;69560;52.206;21.018;2023-12-20T03:02:46;5.20;;;3.90;;
80247;SDS011;69560;52.206;21.018;2023-12-20T03:05:12;5.40;;;3.90;;
80247;SDS011;69560;52.206;21.018;2023-12-20T03:07:39;5.20;;;4.10;;
80247;SDS011;69560;52.206;21.018;2023-12-20T03:10:05;6.00;;;4.10;;
80247;SDS011;69560;52.206;21.018;2023-12-20T03:12:34;4.80;;;3.90;;
80247;SDS011;69560;52.206;21.018;2023-12-20T03:15:00;4.60;;;3.80;;
80247;SDS011;69560;52.206;21.018;2023-12-20T03:17:27;4.90;;;3.80;;
80247;SDS011;69560;52.206;21.018;2023-12-20T03:19:53;5.20;;;3.90;;
80247;SDS011;69560;52.206;21.018;2023-12-20T03:22:20;4.00;;;3.60;;
80247;SDS011;69560;52.206;21.018;2023-12-20T03:24:47;4.60;;;3.90;;
80247;SDS011;69560;52.206;21.018;2023-12-20T03:27:14;4.90;;;3.40;;
80247;SDS011;69560;52.206;21.018;2023-12-20T03:29:40;4.30;;;3.00;;
80247;SDS011;69560;52.206;21.018;2023-12-20T03:32:06;3.30;;;2.90;;
80247;SDS011;69560;52.206;21.018;2023-12-20T03:34:34;3.50;;;2.80;;
80247;SDS011;69560;52.206;21.018;2023-12-20T03:37:01;4.10;;;3.30;;
80247;SDS011;69560;52.206;21.018;2023-12-20T03:39:27;4.20;;;3.10;;
80247;SDS011;69560;52.206;21.018;2023-12-20T03:41:54;3.00;;;2.70;;
80247;SDS011;69560;52.206;21.018;2023-12-20T03:44:20;2.80;;;2.50;;
80247;SDS011;69560;52.206;21.018;2023-12-20T03:46:47;3.80;;;2.90;;
80247;SDS011;69560;52.206;21.018;2023-12-20T03:49:15;3.50;;;3.20;;
80247;SDS011;69560;52.206;21.018;2023-12-20T03:51:41;3.80;;;3.00;;
80247;SDS011;69560;52.206;21.018;2023-12-20T03:54:08;5.80;;;3.60;;
80247;SDS011;69560;52.206;21.018;2023-12-20T03:56:35;3.70;;;3.10;;
80247;SDS011;69560;52.206;21.018;2023-12-20T03:59:01;4.30;;;3.50;;
80247;SDS011;69560;52.206;21.018;2023-12-20T04:01:28;4.40;;;3.10;;
80247;SDS011;69560;52.206;21.018;2023-12-20T04:03:54;4.30;;;3.50;;
80247;SDS011;69560;52.206;21.018;2023-12-20T04:06:21;4.30;;;3.70;;
80247;SDS011;69560;52.206;21.018;2023-12-20T04:08:47;4.70;;;3.90;;
80247;SDS011;69560;52.206;21.018;2023-12-20T04:11:14;4.20;;;3.80;;
80247;SDS011;69560;52.206;21.018;2023-12-20T04:13:40;4.50;;;3.80;;
80247;SDS011;69560;52.206;21.018;2023-12-20T04:16:07;4.30;;;3.90;;
80247;SDS011;69560;52.206;21.018;2023-12-20T04:18:33;4.80;;;4.20;;
80247;SDS011;69560;52.206;21.018;2023-12-20T04:21:00;4.90;;;4.00;;
80247;SDS011;69560;52.206;21.018;2023-12-20T04:23:26;5.00;;;3.90;;
80247;SDS011;69560;52.206;21.018;2023-12-20T04:25:53;7.70;;;6.10;;
80247;SDS011;69560;52.206;21.018;2023-12-20T04:28:21;6.30;;;5.50;;
80247;SDS011;69560;52.206;21.018;2023-12-20T04:30:47;7.50;;;6.10;;
80247;SDS011;69560;52.206;21.018;2023-12-20T04:33:14;7.10;;;5.40;;
80247;SDS011;69560;52.206;21.018;2023-12-20T04:35:40;8.50;;;6.90;;
80247;SDS011;69560;52.206;21.018;2023-12-20T04:38:08;8.00;;;6.30;;
80247;SDS011;69560;52.206;21.018;2023-12-20T04:40:35;9.30;;;6.60;;
80247;SDS011;69560;52.206;21.018;2023-12-20T04:43:01;7.30;;;5.60;;
80247;SDS011;69560;52.206;21.018;2023-12-20T04:45:28;6.60;;;5.50;;
80247;SDS011;69560;52.206;21.018;2023-12-20T04:47:55;7.30;;;6.30;;
80247;SDS011;69560;52.206;21.018;2023-12-20T04:50:21;7.40;;;6.20;;
80247;SDS011;69560;52.206;21.018;2023-12-20T04:52:48;7.60;;;6.80;;
80247;SDS011;69560;52.206;21.018;2023-12-20T04:55:14;6.90;;;6.20;;
80247;SDS011;69560;52.206;21.018;2023-12-20T04:57:41;6.70;;;5.60;;
80247;SDS011;69560;52.206;21.018;2023-12-20T05:00:07;7.00;;;6.20;;
80247;SDS011;69560;52.206;21.018;2023-12-20T05:02:37;6.70;;;5.80;;
80247;SDS011;69560;52.206;21.018;2023-12-20T05:05:03;7.80;;;6.10;;
80247;SDS011;69560;52.206;21.018;2023-12-20T05:07:30;7.40;;;6.30;;
80247;SDS011;69560;52.206;21.018;2023-12-20T05:09:56;8.00;;;6.70;;
80247;SDS011;69560;52.206;21.018;2023-12-20T05:12:23;8.20;;;6.60;;
80247;SDS011;69560;52.206;21.018;2023-12-20T05:14:49;7.30;;;6.40;;
80247;SDS011;69560;52.206;21.018;2023-12-20T05:17:17;9.60;;;6.60;;
80247;SDS011;69560;52.206;21.018;2023-12-20T05:19:43;7.80;;;6.70;;
80247;SDS011;69560;52.206;21.018;2023-12-20T05:22:10;8.40;;;6.60;;
80247;SDS011;69560;52.206;21.018;2023-12-20T05:24:36;7.50;;;6.70;;
80247;SDS011;69560;52.206;21.018;2023-12-20T05:27:03;8.20;;;6.90;;
80247;SDS011;69560;52.206;21.018;2023-12-20T05:29:30;7.70;;;6.90;;
80247;SDS011;69560;52.206;21.018;2023-12-20T05:31:57;7.70;;;6.60;;
80247;SDS011;69560;52.206;21.018;2023-12-20T05:34:24;8.30;;;6.60;;
80247;SDS011;69560;52.206;21.018;2023-12-20T05:36:50;8.10;;;7.00;;
80247;SDS011;69560;52.206;21.018;2023-12-20T05:39:17;9.50;;;7.00;;
80247;SDS011;69560;52.206;21.018;2023-12-20T05:41:44;6.90;;;6.20;;
80247;SDS011;69560;52.206;21.018;2023-12-20T05:44:10;7.40;;;6.40;;
80247;SDS011;69560;52.206;21.018;2023-12-20T05:46:37;7.60;;;6.10;;
80247;SDS011;69560;52.206;21.018;2023-12-20T05:49:03;8.50;;;7.30;;
80247;SDS011;69560;52.206;21.018;2023-12-20T05:51:30;8.10;;;7.20;;
80247;SDS011;69560;52.206;21.018;2023-12-20T05:53:56;8.40;;;7.40;;
80247;SDS011;69560;52.206;21.018;2023-12-20T05:56:22;7.20;;;6.50;;
80247;SDS011;69560;52.206;21.018;2023-12-20T05:58:49;8.70;;;7.70;;
80247;SDS011;69560;52.206;21.018;2023-12-20T06:01:15;7.80;;;6.90;;
80247;SDS011;69560;52.206;21.018;2023-12-20T06:03:43;9.20;;;7.60;;
80247;SDS011;69560;52.206;21.018;2023-12-20T06:06:09;8.20;;;7.10;;
80247;SDS011;69560;52.206;21.018;2023-12-20T06:08:36;9.70;;;7.10;;
80247;SDS011;69560;52.206;21.018;2023-12-20T06:11:02;8.30;;;6.90;;
80247;SDS011;69560;52.206;21.018;2023-12-20T06:13:29;8.60;;;7.30;;
80247;SDS011;69560;52.206;21.018;2023-12-20T06:15:55;8.60;;;7.30;;
80247;SDS011;69560;52.206;21.018;2023-12-20T06:18:23;7.60;;;6.90;;
80247;SDS011;69560;52.206;21.018;2023-12-20T06:20:50;7.50;;;6.70;;
80247;SDS011;69560;52.206;21.018;2023-12-20T06:23:17;8.60;;;7.10;;
80247;SDS011;69560;52.206;21.018;2023-12-20T06:25:43;9.80;;;7.40;;
80247;SDS011;69560;52.206;21.018;2023-12-20T06:28:10;8.60;;;7.50;;
80247;SDS011;69560;52.206;21.018;2023-12-20T06:30:40;9.50;;;7.70;;
80247;SDS011;69560;52.206;21.018;2023-12-20T06:33:07;8.60;;;7.50;;
80247;SDS011;69560;52.206;21.018;2023-12-20T06:35:33;9.40;;;8.40;;
80247;SDS011;69560;52.206;21.018;2023-12-20T06:38:00;10.00;;;9.00;;
80247;SDS011;69560;52.206;21.018;2023-12-20T06:40:27;11.40;;;9.40;;
80247;SDS011;69560;52.206;21.018;2023-12-20T06:42:54;10.90;;;9.20;;
80247;SDS011;69560;52.206;21.018;2023-12-20T06:45:20;10.10;;;9.00;;
80247;SDS011;69560;52.206;21.018;2023-12-20T06:47:47;10.20;;;9.10;;
80247;SDS011;69560;52.206;21.018;2023-12-20T06:50:13;10.80;;;8.80;;
80247;SDS011;69560;52.206;21.018;2023-12-20T06:52:40;10.20;;;9.20;;
80247;SDS011;69560;52.206;21.018;2023-12-20T06:55:07;9.80;;;8.30;;
80247;SDS011;69560;52.206;21.018;2023-12-20T06:57:33;11.40;;;9.00;;
80247;SDS011;69560;52.206;21.018;2023-12-20T07:00:01;9.40;;;8.40;;
80247;SDS011;69560;52.206;21.018;2023-12-20T07:02:29;9.20;;;7.80;;
80247;SDS011;69560;52.206;21.018;2023-12-20T07:04:56;8.90;;;7.70;;
80247;SDS011;69560;52.206;21.018;2023-12-20T07:07:23;9.70;;;8.10;;
80247;SDS011;69560;52.206;21.018;2023-12-20T07:09:50;9.90;;;8.80;;
80247;SDS011;69560;52.206;21.018;2023-12-20T07:12:17;9.70;;;8.70;;
80247;SDS011;69560;52.206;21.018;2023-12-20T07:14:45;10.90;;;9.70;;
80247;SDS011;69560;52.206;21.018;2023-12-20T07:17:12;9.80;;;8.70;;
80247;SDS011;69560;52.206;21.018;2023-12-20T07:19:41;9.10;;;8.10;;
80247;SDS011;69560;52.206;21.018;2023-12-20T07:22:08;9.80;;;8.50;;
80247;SDS011;69560;52.206;21.018;2023-12-20T07:24:35;11.20;;;8.90;;
80247;SDS011;69560;52.206;21.018;2023-12-20T07:27:01;9.60;;;8.60;;
80247;SDS011;69560;52.206;21.018;2023-12-20T07:29:28;9.80;;;8.70;;
80247;SDS011;69560;52.206;21.018;2023-12-20T07:31:54;10.50;;;9.40;;
80247;SDS011;69560;52.206;21.018;2023-12-20T07:34:21;9.20;;;8.10;;
80247;SDS011;69560;52.206;21.018;2023-12-20T07:36:47;10.80;;;8.50;;
80247;SDS011;69560;52.206;21.018;2023-12-20T07:39:14;9.80;;;8.20;;
80247;SDS011;69560;52.206;21.018;2023-12-20T07:41:41;10.90;;;8.90;;
80247;SDS011;69560;52.206;21.018;2023-12-20T07:44:07;9.10;;;7.70;;
80247;SDS011;69560;52.206;21.018;2023-12-20T07:46:34;10.10;;;8.20;;
80247;SDS011;69560;52.206;21.018;2023-12-20T07:49:00;8.60;;;7.70;;
80247;SDS011;69560;52.206;21.018;2023-12-20T07:51:27;7.90;;;7.10;;
80247;SDS011;69560;52.206;21.018;2023-12-20T07:53:53;8.10;;;7.10;;
80247;SDS011;69560;52.206;21.018;2023-12-20T07:56:20;9.50;;;7.20;;
80247;SDS011;69560;52.206;21.018;2023-12-20T07:58:46;7.70;;;6.80;;
80247;SDS011;69560;52.206;21.018;2023-12-20T08:01:15;8.20;;;7.30;;
80247;SDS011;69560;52.206;21.018;2023-12-20T08:03:42;7.20;;;6.40;;
80247;SDS011;69560;52.206;21.018;2023-12-20T08:06:08;7.10;;;6.40;;
80247;SDS011;69560;52.206;21.018;2023-12-20T08:08:35;9.00;;;6.70;;
80247;SDS011;69560;52.206;21.018;2023-12-20T08:11:01;9.70;;;6.60;;
80247;SDS011;69560;52.206;21.018;2023-12-20T08:13:28;8.50;;;6.90;;
80247;SDS011;69560;52.206;21.018;2023-12-20T08:15:55;7.40;;;6.60;;
80247;SDS011;69560;52.206;21.018;2023-12-20T08:18:22;9.10;;;7.30;;
80247;SDS011;69560;52.206;21.018;2023-12-20T08:20:49;9.40;;;6.60;;
80247;SDS011;69560;52.206;21.018;2023-12-20T08:23:18;8.30;;;7.00;;
80247;SDS011;69560;52.206;21.018;2023-12-20T08:25:46;7.70;;;6.90;;
80247;SDS011;69560;52.206;21.018;2023-12-20T08:28:14;7.10;;;6.00;;
80247;SDS011;69560;52.206;21.018;2023-12-20T08:30:41;9.00;;;6.70;;
80247;SDS011;69560;52.206;21.018;2023-12-20T08:33:08;7.50;;;6.80;;
80247;SDS011;69560;52.206;21.018;2023-12-20T08:35:39;8.40;;;6.70;;
80247;SDS011;69560;52.206;21.018;2023-12-20T08:38:06;9.80;;;7.40;;
80247;SDS011;69560;52.206;21.018;2023-12-20T08:40:33;9.50;;;6.80;;
80247;SDS011;69560;52.206;21.018;2023-12-20T08:42:59;6.40;;;5.80;;
80247;SDS011;69560;52.206;21.018;2023-12-20T08:45:26;8.00;;;7.20;;
80247;SDS011;69560;52.206;21.018;2023-12-20T08:47:52;8.20;;;6.50;;
80247;SDS011;69560;52.206;21.018;2023-12-20T08:50:19;7.90;;;6.40;;
80247;SDS011;69560;52.206;21.018;2023-12-20T08:52:45;8.30;;;7.00;;
80247;SDS011;69560;52.206;21.018;2023-12-20T08:55:12;6.60;;;5.90;;
80247;SDS011;69560;52.206;21.018;2023-12-20T08:57:39;5.50;;;5.00;;
80247;SDS011;69560;52.206;21.018;2023-12-20T09:00:06;6.30;;;5.60;;
80247;SDS011;69560;52.206;21.018;2023-12-20T09:02:34;8.00;;;7.00;;
80247;SDS011;69560;52.206;21.018;2023-12-20T09:05:02;5.70;;;5.10;;
80247;SDS011;69560;52.206;21.018;2023-12-20T09:07:29;7.30;;;5.40;;
80247;SDS011;69560;52.206;21.018;2023-12-20T09:09:58;6.20;;;5.10;;
80247;SDS011;69560;52.206;21.018;2023-12-20T09:12:25;7.00;;;5.50;;
80247;SDS011;69560;52.206;21.018;2023-12-20T09:14:51;7.80;;;5.50;;
80247;SDS011;69560;52.206;21.018;2023-12-20T09:17:18;6.60;;;5.40;;
80247;SDS011;69560;52.206;21.018;2023-12-20T09:19:45;7.60;;;5.30;;
80247;SDS011;69560;52.206;21.018;2023-12-20T09:22:12;6.90;;;5.60;;
80247;SDS011;69560;52.206;21.018;2023-12-20T09:24:38;7.30;;;5.20;;
80247;SDS011;69560;52.206;21.018;2023-12-20T09:27:05;5.90;;;5.00;;
80247;SDS011;69560;52.206;21.018;2023-12-20T09:29:32;7.30;;;5.50;;
80247;SDS011;69560;52.206;21.018;2023-12-20T09:31:58;6.70;;;5.60;;
80247;SDS011;69560;52.206;21.018;2023-12-20T09:34:25;6.50;;;5.60;;
80247;SDS011;69560;52.206;21.018;2023-12-20T09:36:52;6.50;;;5.50;;
80247;SDS011;69560;52.206;21.018;2023-12-20T09:39:19;6.50;;;5.10;;
80247;SDS011;69560;52.206;21.018;2023-12-20T09:41:49;8.00;;;6.20;;
80247;SDS011;69560;52.206;21.018;2023-12-20T09:44:25;7.20;;;5.60;;
80247;SDS011;69560;52.206;21.018;2023-12-20T09:46:51;6.40;;;5.40;;
80247;SDS011;69560;52.206;21.018;2023-12-20T09:49:20;7.00;;;4.90;;
80247;SDS011;69560;52.206;21.018;2023-12-20T09:51:47;6.60;;;4.90;;
80247;SDS011;69560;52.206;21.018;2023-12-20T09:54:16;5.30;;;4.80;;
80247;SDS011;69560;52.206;21.018;2023-12-20T09:56:43;4.70;;;4.10;;
80247;SDS011;69560;52.206;21.018;2023-12-20T09:59:10;7.40;;;4.90;;
80247;SDS011;69560;52.206;21.018;2023-12-20T10:01:38;5.90;;;5.20;;
80247;SDS011;69560;52.206;21.018;2023-12-20T10:04:06;4.60;;;4.10;;
80247;SDS011;69560;52.206;21.018;2023-12-20T10:06:42;6.40;;;5.50;;
80247;SDS011;69560;52.206;21.018;2023-12-20T10:09:09;5.90;;;4.90;;
80247;SDS011;69560;52.206;21.018;2023-12-20T10:11:37;6.70;;;5.30;;
80247;SDS011;69560;52.206;21.018;2023-12-20T10:14:04;6.40;;;4.90;;
80247;SDS011;69560;52.206;21.018;2023-12-20T10:16:32;5.50;;;4.90;;
80247;SDS011;69560;52.206;21.018;2023-12-20T10:19:00;7.00;;;5.30;;
80247;SDS011;69560;52.206;21.018;2023-12-20T10:21:30;8.70;;;5.80;;
80247;SDS011;69560;52.206;21.018;2023-12-20T10:23:57;9.30;;;5.30;;
80247;SDS011;69560;52.206;21.018;2023-12-20T10:26:27;7.00;;;5.10;;
80247;SDS011;69560;52.206;21.018;2023-12-20T10:28:54;5.40;;;4.80;;
80247;SDS011;69560;52.206;21.018;2023-12-20T10:31:29;6.20;;;4.80;;
80247;SDS011;69560;52.206;21.018;2023-12-20T10:33:58;5.50;;;5.00;;
80247;SDS011;69560;52.206;21.018;2023-12-20T10:36:27;7.20;;;5.90;;
80247;SDS011;69560;52.206;21.018;2023-12-20T10:38:55;7.10;;;6.30;;
80247;SDS011;69560;52.206;21.018;2023-12-20T10:41:29;7.20;;;5.40;;
80247;SDS011;69560;52.206;21.018;2023-12-20T10:44:01;6.20;;;5.20;;
80247;SDS011;69560;52.206;21.018;2023-12-20T10:46:29;7.50;;;5.50;;
80247;SDS011;69560;52.206;21.018;2023-12-20T10:48:56;6.70;;;5.70;;
80247;SDS011;69560;52.206;21.018;2023-12-20T10:51:23;8.00;;;5.90;;
80247;SDS011;69560;52.206;21.018;2023-12-20T10:53:52;7.20;;;5.90;;
80247;SDS011;69560;52.206;21.018;2023-12-20T10:56:19;7.30;;;5.90;;
80247;SDS011;69560;52.206;21.018;2023-12-20T10:58:52;8.20;;;5.60;;
80247;SDS011;69560;52.206;21.018;2023-12-20T11:01:20;5.50;;;4.60;;
80247;SDS011;69560;52.206;21.018;2023-12-20T11:03:51;5.90;;;5.30;;
80247;SDS011;69560;52.206;21.018;2023-12-20T11:09:07;6.40;;;5.20;;
80247;SDS011;69560;52.206;21.018;2023-12-20T11:14:34;6.50;;;5.60;;
80247;SDS011;69560;52.206;21.018;2023-12-20T11:17:09;7.20;;;5.90;;
80247;SDS011;69560;52.206;21.018;2023-12-20T11:22:22;9.20;;;5.70;;
80247;SDS011;69560;52.206;21.018;2023-12-20T11:24:52;5.40;;;4.80;;
80247;SDS011;69560;52.206;21.018;2023-12-20T11:27:19;6.80;;;5.60;;
80247;SDS011;69560;52.206;21.018;2023-12-20T11:29:52;6.40;;;5.10;;
80247;SDS011;69560;52.206;21.018;2023-12-20T11:34:56;7.60;;;5.70;;
80247;SDS011;69560;52.206;21.018;2023-12-20T11:37:31;6.80;;;5.20;;
80247;SDS011;69560;52.206;21.018;2023-12-20T11:40:02;6.80;;;5.50;;
80247;SDS011;69560;52.206;21.018;2023-12-20T11:42:32;6.00;;;5.00;;
80247;SDS011;69560;52.206;21.018;2023-12-20T11:45:09;8.10;;;5.00;;
80247;SDS011;69560;52.206;21.018;2023-12-20T11:47:46;6.10;;;5.30;;
80247;SDS011;69560;52.206;21.018;2023-12-20T11:50:16;7.40;;;5.70;;
80247;SDS011;69560;52.206;21.018;2023-12-20T11:52:46;6.60;;;5.80;;
80247;SDS011;69560;52.206;21.018;2023-12-20T11:55:13;7.10;;;5.90;;
80247;SDS011;69560;52.206;21.018;2023-12-20T11:57:40;6.80;;;5.30;;
80247;SDS011;69560;52.206;21.018;2023-12-20T12:00:06;7.40;;;5.30;;
80247;SDS011;69560;52.206;21.018;2023-12-20T12:02:33;6.90;;;6.20;;
80247;SDS011;69560;52.206;21.018;2023-12-20T12:05:00;8.10;;;6.10;;
80247;SDS011;69560;52.206;21.018;2023-12-20T12:07:26;7.00;;;5.30;;
80247;SDS011;69560;52.206;21.018;2023-12-20T12:09:53;8.10;;;6.40;;
80247;SDS011;69560;52.206;21.018;2023-12-20T12:12:19;8.90;;;7.00;;
80247;SDS011;69560;52.206;21.018;2023-12-20T12:14:48;7.60;;;6.70;;
80247;SDS011;69560;52.206;21.018;2023-12-20T12:17:15;11.40;;;6.60;;
80247;SDS011;69560;52.206;21.018;2023-12-20T12:19:42;8.40;;;6.90;;
80247;SDS011;69560;52.206;21.018;2023-12-20T12:22:10;7.70;;;6.20;;
80247;SDS011;69560;52.206;21.018;2023-12-20T12:24:43;8.30;;;6.90;;
80247;SDS011;69560;52.206;21.018;2023-12-20T12:27:10;9.80;;;7.80;;
80247;SDS011;69560;52.206;21.018;2023-12-20T12:29:38;8.80;;;7.00;;
80247;SDS011;69560;52.206;21.018;2023-12-20T12:32:09;8.80;;;6.80;;
80247;SDS011;69560;52.206;21.018;2023-12-20T12:34:35;7.40;;;6.30;;
80247;SDS011;69560;52.206;21.018;2023-12-20T12:37:05;8.90;;;6.80;;
80247;SDS011;69560;52.206;21.018;2023-12-20T12:39:33;7.30;;;6.20;;
80247;SDS011;69560;52.206;21.018;2023-12-20T12:42:00;6.30;;;5.30;;
80247;SDS011;69560;52.206;21.018;2023-12-20T12:44:26;8.00;;;5.70;;
80247;SDS011;69560;52.206;21.018;2023-12-20T12:46:53;8.40;;;6.10;;
80247;SDS011;69560;52.206;21.018;2023-12-20T12:49:20;8.20;;;6.50;;
80247;SDS011;69560;52.206;21.018;2023-12-20T12:51:47;7.50;;;6.60;;
80247;SDS011;69560;52.206;21.018;2023-12-20T12:54:14;11.70;;;8.10;;
80247;SDS011;69560;52.206;21.018;2023-12-20T12:56:44;9.20;;;7.60;;
80247;SDS011;69560;52.206;21.018;2023-12-20T12:59:10;10.20;;;8.10;;
80247;SDS011;69560;52.206;21.018;2023-12-20T13:01:37;9.70;;;8.30;;
80247;SDS011;69560;52.206;21.018;2023-12-20T13:04:05;9.40;;;7.30;;
80247;SDS011;69560;52.206;21.018;2023-12-20T13:06:37;10.70;;;7.10;;
80247;SDS011;69560;52.206;21.018;2023-12-20T13:09:04;9.50;;;8.30;;
80247;SDS011;69560;52.206;21.018;2023-12-20T13:11:31;9.90;;;7.90;;
80247;SDS011;69560;52.206;21.018;2023-12-20T13:13:57;9.30;;;6.90;;
80247;SDS011;69560;52.206;21.018;2023-12-20T13:16:24;7.00;;;6.20;;
80247;SDS011;69560;52.206;21.018;2023-12-20T13:18:51;8.20;;;7.00;;
80247;SDS011;69560;52.206;21.018;2023-12-20T13:21:17;8.30;;;7.00;;
80247;SDS011;69560;52.206;21.018;2023-12-20T13:23:44;10.10;;;7.50;;
80247;SDS011;69560;52.206;21.018;2023-12-20T13:26:10;9.70;;;7.60;;
80247;SDS011;69560;52.206;21.018;2023-12-20T13:28:36;7.40;;;6.30;;
80247;SDS011;69560;52.206;21.018;2023-12-20T13:31:03;11.10;;;7.60;;
80247;SDS011;69560;52.206;21.018;2023-12-20T13:33:29;9.30;;;7.30;;
80247;SDS011;69560;52.206;21.018;2023-12-20T13:35:56;8.70;;;7.50;;
80247;SDS011;69560;52.206;21.018;2023-12-20T13:38:24;9.40;;;7.60;;
80247;SDS011;69560;52.206;21.018;2023-12-20T13:40:51;8.70;;;6.80;;
80247;SDS011;69560;52.206;21.018;2023-12-20T13:43:17;7.90;;;7.10;;
80247;SDS011;69560;52.206;21.018;2023-12-20T13:45:47;10.20;;;7.00;;
80247;SDS011;69560;52.206;21.018;2023-12-20T13:48:14;7.30;;;6.10;;
80247;SDS011;69560;52.206;21.018;2023-12-20T13:50:40;8.70;;;6.80;;
80247;SDS011;69560;52.206;21.018;2023-12-20T13:53:07;9.80;;;6.80;;
80247;SDS011;69560;52.206;21.018;2023-12-20T13:55:33;8.40;;;7.20;;
80247;SDS011;69560;52.206;21.018;2023-12-20T13:58:00;10.10;;;6.70;;
80247;SDS011;69560;52.206;21.018;2023-12-20T14:00:26;10.10;;;7.30;;
80247;SDS011;69560;52.206;21.018;2023-12-20T14:02:53;10.10;;;7.30;;
80247;SDS011;69560;52.206;21.018;2023-12-20T14:05:19;9.50;;;8.10;;
80247;SDS011;69560;52.206;21.018;2023-12-20T14:07:46;10.50;;;7.10;;
80247;SDS011;69560;52.206;21.018;2023-12-20T14:10:13;9.20;;;7.20;;
80247;SDS011;69560;52.206;21.018;2023-12-20T14:12:40;9.80;;;7.50;;
80247;SDS011;69560;52.206;21.018;2023-12-20T14:15:07;9.20;;;7.50;;
80247;SDS011;69560;52.206;21.018;2023-12-20T14:17:37;10.40;;;7.90;;
80247;SDS011;69560;52.206;21.018;2023-12-20T14:20:05;9.10;;;7.40;;
80247;SDS011;69560;52.206;21.018;2023-12-20T14:22:33;10.20;;;7.70;;
80247;SDS011;69560;52.206;21.018;2023-12-20T14:25:00;8.60;;;6.50;;
80247;SDS011;69560;52.206;21.018;2023-12-20T14:27:27;10.70;;;8.00;;
80247;SDS011;69560;52.206;21.018;2023-12-20T14:29:56;9.70;;;7.40;;
80247;SDS011;69560;52.206;21.018;2023-12-20T14:32:23;12.90;;;8.20;;
80247;SDS011;69560;52.206;21.018;2023-12-20T14:34:52;13.30;;;8.10;;
80247;SDS011;69560;52.206;21.018;2023-12-20T14:37:20;9.70;;;8.00;;
80247;SDS011;69560;52.206;21.018;2023-12-20T14:39:47;10.20;;;8.40;;
80247;SDS011;69560;52.206;21.018;2023-12-20T14:42:14;11.60;;;7.90;;